Bettina K — PBEW — position and weather

sailwx.info

Track history (hours):
 
Tides and Currents Weather Stations Pressure Air Temp Water Temp Dewpoint Dewpoint Depression Visibility Wind Speed Wind Dir Waves Ship Positions

Bettina K

Last reported at 2015-Jul-02 15:33 UTC. Time now 2015-Jul-04 05:02 UTC.
Position N 57°45' W 002°00'.

Length 88 m; draft 4 m.

Type: Cargo ship. MMSI: 244730469.

Date/timePositionNaut miles runAvg speedWind from/ knotsBaromVisibWave heightAir tempDewpointWater temp
2015-Jul-02 15:33N 57°45' W 002°00'9 9.3
2015-Jul-02 14:32N 57°42' W 001°44'338 9.1
2015-Jul-01 01:29N 54°34' E 006°39'1211.3
2015-Jul-01 00:27N 54°28' E 006°56'1011.3
2015-Jun-30 23:33N 54°22' E 007°11'1110.7
2015-Jun-30 22:34N 54°16' E 007°26'1510.8
2015-Jun-30 21:08N 54°08' E 007°48'5 8.0
2015-Jun-30 20:33N 54°05' E 007°55'18 9.2
2015-Jun-30 18:33N 53°59' E 008°24'10 9.9
2015-Jun-30 17:34N 53°56' E 008°40'1111.4
2015-Jun-30 16:34N 53°51' E 008°57'8 7.6
2015-Jun-30 15:33N 53°54' E 009°09'8 7.9
2015-Jun-30 14:33N 53°60' E 009°18'8 7.3
2015-Jun-30 13:32N 54°07' E 009°20'6 6.4
2015-Jun-30 12:33N 54°11' E 009°28'9 7.8
2015-Jun-30 11:25N 54°17' E 009°39'3 3.4
2015-Jun-30 10:34N 54°19' E 009°43'6 5.5
2015-Jun-30 09:34N 54°22' E 009°51'6 5.8
2015-Jun-30 08:34N 54°22' E 010°01'4 4.4
2015-Jun-30 07:34N 54°22' E 010°08'1 1.3
2015-Jun-30 06:34N 54°23' E 010°10'5 5.2
2015-Jun-30 05:33N 54°27' E 010°14'6 5.7
2015-Jun-30 04:34N 54°31' E 010°22'10 8.5
2015-Jun-30 03:22N 54°34' E 010°38'8 9.6
2015-Jun-30 02:32N 54°35' E 010°52'9 9.7
2015-Jun-30 01:34N 54°36' E 011°08'9 9.3
2015-Jun-30 00:34N 54°33' E 011°23'9 9.2
2015-Jun-29 23:34N 54°27' E 011°35'9 9.4
2015-Jun-29 22:34N 54°21' E 011°48'9 9.3
2015-Jun-29 21:34N 54°15' E 011°60'7 6.6
2015-Jun-29 20:34N 54°09' E 012°06'0 0.0
2015-Jun-29 19:26N 54°09' E 012°06'0 0.0
2015-Jun-29 18:32N 54°09' E 012°06'0 0.0
2015-Jun-29 17:29N 54°09' E 012°06'0 0.0
2015-Jun-29 15:11N 54°09' E 012°06'0 0.0
2015-Jun-29 13:23N 54°09' E 012°06'0 0.0
2015-Jun-29 12:26N 54°09' E 012°06'0 0.0
2015-Jun-29 11:32N 54°09' E 012°06'0 0.0
2015-Jun-29 10:32N 54°09' E 012°06'0 0.0
2015-Jun-29 09:14N 54°09' E 012°06'0 0.0
2015-Jun-29 08:20N 54°09' E 012°06'0 0.0
2015-Jun-29 07:32N 54°09' E 012°06'0 0.0
2015-Jun-29 06:29N 54°09' E 012°06'0 0.0
2015-Jun-29 05:26N 54°09' E 012°06'0 0.0
2015-Jun-29 03:29N 54°09' E 012°06'0 0.0
2015-Jun-29 02:29N 54°09' E 012°06'0 0.0
2015-Jun-29 01:29N 54°09' E 012°06'0 0.0
2015-Jun-29 00:14N 54°09' E 012°06'0 0.0
2015-Jun-28 23:26N 54°09' E 012°06'0 0.0
2015-Jun-28 22:26N 54°09' E 012°06'0 0.0
2015-Jun-28 21:29N 54°09' E 012°06'0 0.0
2015-Jun-28 19:26N 54°09' E 012°06'0 0.0
2015-Jun-28 18:23N 54°09' E 012°06'0 0.0
2015-Jun-28 17:32N 54°09' E 012°06'0 0.0
2015-Jun-28 16:26N 54°09' E 012°06'0 0.0
2015-Jun-28 15:29N 54°09' E 012°06'0 0.0
2015-Jun-28 14:29N 54°09' E 012°06'0 0.0
2015-Jun-28 13:26N 54°09' E 012°06'0 0.0
2015-Jun-28 12:26N 54°09' E 012°06'0 0.0
2015-Jun-28 11:29N 54°09' E 012°06'0 0.0
2015-Jun-28 10:32N 54°09' E 012°06'0 0.0
2015-Jun-28 09:32N 54°09' E 012°06'0 0.0
2015-Jun-28 07:26N 54°09' E 012°06'0 0.0
2015-Jun-28 06:26N 54°09' E 012°06'0 0.0
2015-Jun-28 05:20N 54°09' E 012°06'0 0.0
2015-Jun-28 04:26N 54°09' E 012°06'0 0.0
2015-Jun-28 03:20N 54°09' E 012°06'0 0.0
2015-Jun-28 01:29N 54°09' E 012°06'0 0.0
2015-Jun-28 00:20N 54°09' E 012°06'0 0.0
2015-Jun-27 23:14N 54°09' E 012°06'0 0.0
2015-Jun-27 22:29N 54°09' E 012°06'0 0.0
2015-Jun-27 21:23N 54°09' E 012°06'0 0.0
2015-Jun-27 20:29N 54°09' E 012°06'0 0.0
2015-Jun-27 19:32N 54°09' E 012°06'0 0.0
2015-Jun-27 18:29N 54°09' E 012°06'0 0.0
2015-Jun-27 17:26N 54°09' E 012°06'0 0.0
2015-Jun-27 16:32N 54°09' E 012°06'0 0.0
2015-Jun-27 15:23N 54°09' E 012°06'0 0.0
2015-Jun-27 14:26N 54°09' E 012°06'0 0.0
2015-Jun-27 13:29N 54°09' E 012°06'0 0.0
2015-Jun-27 12:17N 54°09' E 012°06'0 0.0
2015-Jun-27 11:32N 54°09' E 012°06'0 0.0
2015-Jun-27 10:17N 54°09' E 012°06'0 0.0
2015-Jun-27 09:32N 54°09' E 012°06'0 0.0
2015-Jun-27 08:17N 54°09' E 012°06'0 0.0
2015-Jun-27 07:29N 54°09' E 012°06'0 0.0
2015-Jun-27 06:26N 54°09' E 012°06'5 6.2
2015-Jun-27 05:34N 54°14' E 012°02'1010.2
2015-Jun-27 04:33N 54°20' E 011°48'1010.3
2015-Jun-27 03:33N 54°27' E 011°34'10 9.8
2015-Jun-27 02:33N 54°32' E 011°20'10 9.6
2015-Jun-27 01:33N 54°35' E 011°05'1010.2
2015-Jun-27 00:33N 54°34' E 010°47'1010.1
2015-Jun-26 23:33N 54°32' E 010°30'10 9.5
2015-Jun-26 22:33N 54°28' E 010°15'7 7.2
2015-Jun-26 21:33N 54°22' E 010°08'3 2.7
2015-Jun-26 20:33N 54°22' E 010°04'7 6.8
2015-Jun-26 19:33N 54°22' E 009°52'7 7.2
2015-Jun-26 18:34N 54°18' E 009°42'7 6.8
2015-Jun-26 17:34N 54°13' E 009°34'10 8.5
2015-Jun-26 16:22N 54°07' E 009°20'7 8.9
2015-Jun-26 15:33N 54°00' E 009°18'8 7.9
2015-Jun-26 14:33N 53°54' E 009°09'2 2.0
2015-Jun-26 13:33N 53°53' E 009°06'3 2.9
2015-Jun-26 12:33N 53°52' E 009°02'7 7.0
2015-Jun-26 11:33N 53°50' E 008°51'6 6.2
2015-Jun-26 10:33N 53°54' E 008°42'7 6.9
2015-Jun-26 09:33N 53°58' E 008°33'8 8.3
2015-Jun-26 08:33N 53°59' E 008°19'4 4.2
2015-Jun-26 07:31N 53°59' E 008°11'5 5.0
2015-Jun-26 06:33N 53°60' E 008°03'8 8.1
2015-Jun-26 05:33N 54°04' E 007°51'396 9.8
2015-Jun-24 13:12N 57°45' W 001°54'3 0.1
2015-Jun-22 18:33N 57°45' W 001°60'7 7.2
2015-Jun-22 17:33N 57°41' W 001°48'7 7.1
2015-Jun-22 16:33N 57°38' W 001°36'  
Track history (hours):
 
Tides and Currents Weather Stations Pressure Air Temp Water Temp Dewpoint Dewpoint Depression Visibility Wind Speed Wind Dir Waves Ship Positions

Bettina K

Last reported at 2015-Jul-02 15:33 UTC. Time now 2015-Jul-04 05:02 UTC.
Position N 57°45' W 002°00'.

Length 88 m; draft 4 m.

Type: Cargo ship. MMSI: 244730469.

Date/timePositionNaut miles runAvg speedWind from/ knotsBaromVisibWave heightAir tempDewpointWater temp
2015-Jul-02 15:33N 57°45' W 002°00'9 9.3
2015-Jul-02 14:32N 57°42' W 001°44'338 9.1
2015-Jul-01 01:29N 54°34' E 006°39'1211.3
2015-Jul-01 00:27N 54°28' E 006°56'1011.3
2015-Jun-30 23:33N 54°22' E 007°11'1110.7
2015-Jun-30 22:34N 54°16' E 007°26'1510.8
2015-Jun-30 21:08N 54°08' E 007°48'5 8.0
2015-Jun-30 20:33N 54°05' E 007°55'18 9.2
2015-Jun-30 18:33N 53°59' E 008°24'10 9.9
2015-Jun-30 17:34N 53°56' E 008°40'1111.4
2015-Jun-30 16:34N 53°51' E 008°57'8 7.6
2015-Jun-30 15:33N 53°54' E 009°09'8 7.9
2015-Jun-30 14:33N 53°60' E 009°18'8 7.3
2015-Jun-30 13:32N 54°07' E 009°20'6 6.4
2015-Jun-30 12:33N 54°11' E 009°28'9 7.8
2015-Jun-30 11:25N 54°17' E 009°39'3 3.4
2015-Jun-30 10:34N 54°19' E 009°43'6 5.5
2015-Jun-30 09:34N 54°22' E 009°51'6 5.8
2015-Jun-30 08:34N 54°22' E 010°01'4 4.4
2015-Jun-30 07:34N 54°22' E 010°08'1 1.3
2015-Jun-30 06:34N 54°23' E 010°10'5 5.2
2015-Jun-30 05:33N 54°27' E 010°14'6 5.7
2015-Jun-30 04:34N 54°31' E 010°22'10 8.5
2015-Jun-30 03:22N 54°34' E 010°38'8 9.6
2015-Jun-30 02:32N 54°35' E 010°52'9 9.7
2015-Jun-30 01:34N 54°36' E 011°08'9 9.3
2015-Jun-30 00:34N 54°33' E 011°23'9 9.2
2015-Jun-29 23:34N 54°27' E 011°35'9 9.4
2015-Jun-29 22:34N 54°21' E 011°48'9 9.3
2015-Jun-29 21:34N 54°15' E 011°60'7 6.6
2015-Jun-29 20:34N 54°09' E 012°06'0 0.0
2015-Jun-29 19:26N 54°09' E 012°06'0 0.0
2015-Jun-29 18:32N 54°09' E 012°06'0 0.0
2015-Jun-29 17:29N 54°09' E 012°06'0 0.0
2015-Jun-29 15:11N 54°09' E 012°06'0 0.0
2015-Jun-29 13:23N 54°09' E 012°06'0 0.0
2015-Jun-29 12:26N 54°09' E 012°06'0 0.0
2015-Jun-29 11:32N 54°09' E 012°06'0 0.0
2015-Jun-29 10:32N 54°09' E 012°06'0 0.0
2015-Jun-29 09:14N 54°09' E 012°06'0 0.0
2015-Jun-29 08:20N 54°09' E 012°06'0 0.0
2015-Jun-29 07:32N 54°09' E 012°06'0 0.0
2015-Jun-29 06:29N 54°09' E 012°06'0 0.0
2015-Jun-29 05:26N 54°09' E 012°06'0 0.0
2015-Jun-29 03:29N 54°09' E 012°06'0 0.0
2015-Jun-29 02:29N 54°09' E 012°06'0 0.0
2015-Jun-29 01:29N 54°09' E 012°06'0 0.0
2015-Jun-29 00:14N 54°09' E 012°06'0 0.0
2015-Jun-28 23:26N 54°09' E 012°06'0 0.0
2015-Jun-28 22:26N 54°09' E 012°06'0 0.0
2015-Jun-28 21:29N 54°09' E 012°06'0 0.0
2015-Jun-28 19:26N 54°09' E 012°06'0 0.0
2015-Jun-28 18:23N 54°09' E 012°06'0 0.0
2015-Jun-28 17:32N 54°09' E 012°06'0 0.0
2015-Jun-28 16:26N 54°09' E 012°06'0 0.0
2015-Jun-28 15:29N 54°09' E 012°06'0 0.0
2015-Jun-28 14:29N 54°09' E 012°06'0 0.0
2015-Jun-28 13:26N 54°09' E 012°06'0 0.0
2015-Jun-28 12:26N 54°09' E 012°06'0 0.0
2015-Jun-28 11:29N 54°09' E 012°06'0 0.0
2015-Jun-28 10:32N 54°09' E 012°06'0 0.0
2015-Jun-28 09:32N 54°09' E 012°06'0 0.0
2015-Jun-28 07:26N 54°09' E 012°06'0 0.0
2015-Jun-28 06:26N 54°09' E 012°06'0 0.0
2015-Jun-28 05:20N 54°09' E 012°06'0 0.0
2015-Jun-28 04:26N 54°09' E 012°06'0 0.0
2015-Jun-28 03:20N 54°09' E 012°06'0 0.0
2015-Jun-28 01:29N 54°09' E 012°06'0 0.0
2015-Jun-28 00:20N 54°09' E 012°06'0 0.0
2015-Jun-27 23:14N 54°09' E 012°06'0 0.0
2015-Jun-27 22:29N 54°09' E 012°06'0 0.0
2015-Jun-27 21:23N 54°09' E 012°06'0 0.0
2015-Jun-27 20:29N 54°09' E 012°06'0 0.0
2015-Jun-27 19:32N 54°09' E 012°06'0 0.0
2015-Jun-27 18:29N 54°09' E 012°06'0 0.0
2015-Jun-27 17:26N 54°09' E 012°06'0 0.0
2015-Jun-27 16:32N 54°09' E 012°06'0 0.0
2015-Jun-27 15:23N 54°09' E 012°06'0 0.0
2015-Jun-27 14:26N 54°09' E 012°06'0 0.0
2015-Jun-27 13:29N 54°09' E 012°06'0 0.0
2015-Jun-27 12:17N 54°09' E 012°06'0 0.0
2015-Jun-27 11:32N 54°09' E 012°06'0 0.0
2015-Jun-27 10:17N 54°09' E 012°06'0 0.0
2015-Jun-27 09:32N 54°09' E 012°06'0 0.0
2015-Jun-27 08:17N 54°09' E 012°06'0 0.0
2015-Jun-27 07:29N 54°09' E 012°06'0 0.0
2015-Jun-27 06:26N 54°09' E 012°06'5 6.2
2015-Jun-27 05:34N 54°14' E 012°02'1010.2
2015-Jun-27 04:33N 54°20' E 011°48'1010.3
2015-Jun-27 03:33N 54°27' E 011°34'10 9.8
2015-Jun-27 02:33N 54°32' E 011°20'10 9.6
2015-Jun-27 01:33N 54°35' E 011°05'1010.2
2015-Jun-27 00:33N 54°34' E 010°47'1010.1
2015-Jun-26 23:33N 54°32' E 010°30'10 9.5
2015-Jun-26 22:33N 54°28' E 010°15'7 7.2
2015-Jun-26 21:33N 54°22' E 010°08'3 2.7
2015-Jun-26 20:33N 54°22' E 010°04'7 6.8
2015-Jun-26 19:33N 54°22' E 009°52'7 7.2
2015-Jun-26 18:34N 54°18' E 009°42'7 6.8
2015-Jun-26 17:34N 54°13' E 009°34'10 8.5
2015-Jun-26 16:22N 54°07' E 009°20'7 8.9
2015-Jun-26 15:33N 54°00' E 009°18'8 7.9
2015-Jun-26 14:33N 53°54' E 009°09'2 2.0
2015-Jun-26 13:33N 53°53' E 009°06'3 2.9
2015-Jun-26 12:33N 53°52' E 009°02'7 7.0
2015-Jun-26 11:33N 53°50' E 008°51'6 6.2
2015-Jun-26 10:33N 53°54' E 008°42'7 6.9
2015-Jun-26 09:33N 53°58' E 008°33'8 8.3
2015-Jun-26 08:33N 53°59' E 008°19'4 4.2
2015-Jun-26 07:31N 53°59' E 008°11'5 5.0
2015-Jun-26 06:33N 53°60' E 008°03'8 8.1
2015-Jun-26 05:33N 54°04' E 007°51'396 9.8
2015-Jun-24 13:12N 57°45' W 001°54'3 0.1
2015-Jun-22 18:33N 57°45' W 001°60'7 7.2
2015-Jun-22 17:33N 57°41' W 001°48'7 7.1
2015-Jun-22 16:33N 57°38' W 001°36'  

Dump ship's entire track history